Rescue Gideon — LF3941 — position and weather

sailwx.info

Track history (hours):
 
Tides and Currents Weather Stations Pressure Air Temp Water Temp Dewpoint Dewpoint Depression Visibility Wind Speed Wind Dir Waves Ship Positions

Rescue Gideon

Last reported at 2014-Oct-23 14:23 UTC. Time now 2014-Oct-23 15:08 UTC.
Position N 69°39' E 018°58'.

Length 13 m; draft 1 m.

Type: SAR. MMSI: 257904900.

Date/timePositionNaut miles runAvg speedWind from/ knotsBaromVisibWave heightAir tempDewpointWater temp
2014-Oct-23 14:23N 69°39' E 018°58'0 0.0
2014-Oct-23 13:32N 69°39' E 018°58'0 0.0
2014-Oct-23 12:32N 69°39' E 018°58'0 0.0
2014-Oct-23 11:32N 69°39' E 018°58'0 0.0
2014-Oct-23 10:29N 69°39' E 018°58'0 0.0
2014-Oct-23 09:26N 69°39' E 018°58'0 0.0
2014-Oct-23 08:29N 69°39' E 018°58'0 0.0
2014-Oct-23 07:26N 69°39' E 018°58'0 0.0
2014-Oct-23 06:26N 69°39' E 018°58'0 0.0
2014-Oct-23 05:26N 69°39' E 018°58'0 0.0
2014-Oct-23 04:32N 69°39' E 018°58'0 0.0
2014-Oct-23 03:32N 69°39' E 018°58'0 0.0
2014-Oct-23 02:32N 69°39' E 018°58'0 0.0
2014-Oct-23 01:11N 69°39' E 018°58'0 0.0
2014-Oct-23 00:32N 69°39' E 018°58'0 0.0
2014-Oct-22 23:23N 69°39' E 018°58'0 0.0
2014-Oct-22 22:32N 69°39' E 018°58'0 0.0
2014-Oct-22 21:29N 69°39' E 018°58'0 0.0
2014-Oct-22 20:23N 69°39' E 018°58'1 1.0
2014-Oct-22 19:05N 69°40' E 019°00'1 2.1
2014-Oct-22 18:27N 69°39' E 018°58'0 0.0
2014-Oct-22 17:33N 69°39' E 018°58'0 0.0
2014-Oct-22 16:33N 69°39' E 018°58'0 0.0
2014-Oct-22 15:33N 69°39' E 018°58'0 0.0
2014-Oct-22 14:30N 69°39' E 018°58'0 0.0
2014-Oct-22 13:33N 69°39' E 018°58'0 0.0
2014-Oct-22 12:27N 69°39' E 018°58'0 0.0
2014-Oct-22 11:18N 69°39' E 018°58'0 0.0
2014-Oct-22 10:33N 69°39' E 018°58'0 0.0
2014-Oct-22 09:30N 69°39' E 018°58'0 0.0
2014-Oct-22 08:30N 69°39' E 018°58'0 0.0
2014-Oct-22 07:33N 69°39' E 018°58'0 0.0
2014-Oct-22 06:33N 69°39' E 018°58'0 0.0
2014-Oct-22 05:30N 69°39' E 018°58'0 0.0
2014-Oct-22 04:24N 69°39' E 018°58'0 0.0
2014-Oct-22 03:27N 69°39' E 018°58'0 0.0
2014-Oct-22 02:33N 69°39' E 018°58'0 0.0
2014-Oct-22 01:30N 69°39' E 018°58'0 0.0
2014-Oct-22 00:33N 69°39' E 018°58'0 0.0
2014-Oct-21 23:33N 69°39' E 018°58'0 0.0
2014-Oct-21 22:33N 69°39' E 018°58'0 0.0
2014-Oct-21 21:33N 69°39' E 018°58'0 0.0
2014-Oct-21 20:30N 69°39' E 018°58'3 3.2
2014-Oct-21 19:33N 69°42' E 019°02'4 4.3
2014-Oct-21 18:33N 69°39' E 018°53'2 1.7
2014-Oct-21 17:32N 69°39' E 018°58'0 0.0
2014-Oct-21 16:32N 69°39' E 018°58'0 0.0
2014-Oct-21 15:32N 69°39' E 018°58'0 0.0
2014-Oct-21 14:29N 69°39' E 018°58'0 0.0
2014-Oct-21 13:32N 69°39' E 018°58'0 0.0
2014-Oct-21 12:32N 69°39' E 018°58'0 0.0
2014-Oct-21 11:29N 69°39' E 018°58'0 0.0
2014-Oct-21 10:26N 69°39' E 018°58'0 0.0
2014-Oct-21 09:29N 69°39' E 018°58'0 0.0
2014-Oct-21 08:32N 69°39' E 018°58'0 0.0
2014-Oct-21 07:29N 69°39' E 018°58'0 0.0
2014-Oct-21 06:29N 69°39' E 018°58'0 0.0
2014-Oct-21 05:32N 69°39' E 018°58'0 0.0
2014-Oct-21 04:32N 69°39' E 018°58'0 0.0
2014-Oct-21 03:29N 69°39' E 018°58'0 0.0
2014-Oct-21 02:32N 69°39' E 018°58'0 0.0
2014-Oct-21 01:32N 69°39' E 018°58'0 0.0
2014-Oct-21 00:32N 69°39' E 018°58'0 0.0
2014-Oct-20 23:32N 69°39' E 018°58'0 0.0
2014-Oct-20 22:32N 69°39' E 018°58'0 0.0
2014-Oct-20 21:32N 69°39' E 018°58'0 0.0
2014-Oct-20 20:29N 69°39' E 018°58'0 0.0
2014-Oct-20 19:32N 69°39' E 018°58'0 0.0
2014-Oct-20 18:24N 69°39' E 018°58'0 0.0
2014-Oct-20 17:33N 69°39' E 018°58'0 0.0
2014-Oct-20 16:33N 69°39' E 018°58'0 0.0
2014-Oct-20 15:33N 69°39' E 018°58'0 0.0
2014-Oct-20 14:33N 69°39' E 018°58'0 0.0
2014-Oct-20 13:33N 69°39' E 018°58'0 0.0
2014-Oct-20 12:33N 69°39' E 018°58'0 0.0
2014-Oct-20 11:33N 69°39' E 018°58'0 0.0
2014-Oct-20 10:33N 69°39' E 018°58'0 0.0
2014-Oct-20 09:33N 69°39' E 018°58'0 0.0
2014-Oct-20 08:33N 69°39' E 018°58'0 0.0
2014-Oct-20 07:33N 69°39' E 018°58'0 0.0
2014-Oct-20 06:33N 69°39' E 018°58'0 0.0
2014-Oct-20 05:33N 69°39' E 018°58'0 0.0
2014-Oct-20 04:33N 69°39' E 018°58'0 0.0
2014-Oct-20 03:33N 69°39' E 018°58'0 0.0
2014-Oct-20 02:33N 69°39' E 018°58'0 0.0
2014-Oct-20 01:33N 69°39' E 018°58'0 0.0
2014-Oct-20 00:33N 69°39' E 018°58'0 0.0
2014-Oct-19 23:33N 69°39' E 018°58'0 0.0
2014-Oct-19 22:33N 69°39' E 018°58'0 0.0
2014-Oct-19 21:33N 69°39' E 018°58'0 0.0
2014-Oct-19 20:33N 69°39' E 018°58'0 0.0
2014-Oct-19 19:33N 69°39' E 018°58'0 0.0
2014-Oct-19 18:33N 69°39' E 018°58'0 0.0
2014-Oct-19 17:33N 69°39' E 018°58'0 0.0
2014-Oct-19 16:33N 69°39' E 018°58'0 0.0
2014-Oct-19 15:33N 69°39' E 018°58'0 0.0
2014-Oct-19 14:26N 69°39' E 018°58'0 0.0
2014-Oct-19 13:33N 69°39' E 018°58'0 0.0
2014-Oct-19 12:33N 69°39' E 018°58'0 0.0
2014-Oct-19 11:33N 69°39' E 018°58'0 0.3
2014-Oct-19 10:33N 69°39' E 018°59'0 0.3
2014-Oct-19 09:33N 69°39' E 018°58'0 0.0
2014-Oct-19 08:33N 69°39' E 018°58'0 0.0
2014-Oct-19 07:33N 69°39' E 018°58'0 0.0
2014-Oct-19 06:33N 69°39' E 018°58'0 0.0
2014-Oct-19 05:33N 69°39' E 018°58'0 0.0
2014-Oct-19 04:33N 69°39' E 018°58'0 0.0
2014-Oct-19 03:33N 69°39' E 018°58'0 0.0
2014-Oct-19 02:33N 69°39' E 018°58'1 0.7
2014-Oct-19 01:33N 69°40' E 018°59'1 0.6
2014-Oct-18 23:04N 69°41' E 019°01'2 4.3
2014-Oct-18 22:33N 69°39' E 018°58'0 0.0
2014-Oct-18 21:33N 69°39' E 018°58'0 0.0
2014-Oct-18 20:33N 69°39' E 018°58'0 0.0
2014-Oct-18 19:27N 69°39' E 018°58'0 0.0
2014-Oct-18 18:33N 69°39' E 018°58'0 0.0
2014-Oct-18 17:15N 69°39' E 018°58'0 0.0
2014-Oct-18 16:33N 69°39' E 018°58'0 0.0
2014-Oct-18 15:33N 69°39' E 018°58'0 0.0
2014-Oct-18 14:33N 69°39' E 018°58'0 0.0
2014-Oct-18 13:33N 69°39' E 018°58'0 0.0
2014-Oct-18 12:33N 69°39' E 018°58'0 0.0
2014-Oct-18 11:30N 69°39' E 018°58'0 0.0
2014-Oct-18 10:33N 69°39' E 018°58'0 0.0
2014-Oct-18 09:33N 69°39' E 018°58'0 0.0
2014-Oct-18 08:33N 69°39' E 018°58'0 0.0
2014-Oct-18 07:33N 69°39' E 018°58'0 0.0
2014-Oct-18 06:30N 69°39' E 018°58'0 0.0
2014-Oct-18 05:30N 69°39' E 018°58'0 0.0
2014-Oct-18 04:27N 69°39' E 018°58'0 0.0
2014-Oct-18 03:33N 69°39' E 018°58'0 0.0
2014-Oct-18 02:33N 69°39' E 018°58'0 0.0
2014-Oct-18 01:27N 69°39' E 018°58'0 0.0
2014-Oct-18 00:33N 69°39' E 018°58'0 0.0
2014-Oct-17 23:33N 69°39' E 018°58'0 0.0
2014-Oct-17 22:27N 69°39' E 018°58'0 0.0
2014-Oct-17 21:33N 69°39' E 018°58'0 0.0
2014-Oct-17 20:33N 69°39' E 018°58'0 0.0
2014-Oct-17 19:33N 69°39' E 018°58'0 0.0
2014-Oct-17 18:33N 69°39' E 018°58'0 0.0
2014-Oct-17 17:33N 69°39' E 018°58'0 0.0
2014-Oct-17 16:30N 69°39' E 018°58'0 0.0
2014-Oct-17 15:33N 69°39' E 018°58'0 0.0
2014-Oct-17 14:33N 69°39' E 018°58'0 0.0
2014-Oct-17 13:30N 69°39' E 018°58'0 0.0
2014-Oct-17 12:30N 69°39' E 018°58'0 0.0
2014-Oct-17 11:33N 69°39' E 018°58'0 0.0
2014-Oct-17 10:33N 69°39' E 018°58'0 0.0
2014-Oct-17 09:33N 69°39' E 018°58'0 0.0
2014-Oct-17 08:33N 69°39' E 018°58'0 0.0
2014-Oct-17 07:33N 69°39' E 018°58'0 0.0
2014-Oct-17 06:33N 69°39' E 018°58'0 0.0
2014-Oct-17 05:33N 69°39' E 018°58'0 0.0
2014-Oct-17 04:33N 69°39' E 018°58'0 0.0
2014-Oct-17 03:33N 69°39' E 018°58'0 0.0
2014-Oct-17 02:33N 69°39' E 018°58'0 0.0
2014-Oct-17 01:33N 69°39' E 018°58'0 0.0
2014-Oct-17 00:33N 69°39' E 018°58'0 0.0
2014-Oct-16 23:33N 69°39' E 018°58'0 0.0
2014-Oct-16 22:30N 69°39' E 018°58'0 0.0
2014-Oct-16 21:27N 69°39' E 018°58'0 0.0
2014-Oct-16 20:33N 69°39' E 018°58'0 0.0
2014-Oct-16 19:33N 69°39' E 018°58'0 0.0
2014-Oct-16 18:33N 69°39' E 018°58'0 0.0
2014-Oct-16 17:24N 69°39' E 018°58'0 0.0
2014-Oct-16 16:33N 69°39' E 018°58'0 0.0
2014-Oct-16 15:33N 69°39' E 018°58'0 0.0
2014-Oct-16 14:33N 69°39' E 018°58'0 0.0
2014-Oct-16 13:33N 69°39' E 018°58'0 0.0
2014-Oct-16 12:30N 69°39' E 018°58'0 0.0
2014-Oct-16 11:33N 69°39' E 018°58'0 0.0
2014-Oct-16 10:27N 69°39' E 018°58'0 0.0
2014-Oct-16 09:30N 69°39' E 018°58'0 0.0
2014-Oct-16 08:33N 69°39' E 018°58'0 0.0
2014-Oct-16 07:27N 69°39' E 018°58'0 0.0
2014-Oct-16 06:33N 69°39' E 018°58'0 0.0
2014-Oct-16 05:27N 69°39' E 018°58'0 0.0
2014-Oct-16 04:33N 69°39' E 018°58'0 0.0
2014-Oct-16 03:33N 69°39' E 018°58'0 0.0
2014-Oct-16 02:30N 69°39' E 018°58'0 0.0
2014-Oct-16 01:30N 69°39' E 018°58'0 0.0
2014-Oct-16 00:33N 69°39' E 018°58'0 0.0
2014-Oct-15 23:33N 69°39' E 018°58'0 0.0
2014-Oct-15 22:21N 69°39' E 018°58'0 0.0
2014-Oct-15 21:33N 69°39' E 018°58'0 0.0
2014-Oct-15 20:27N 69°39' E 018°58'0 0.0
2014-Oct-15 19:33N 69°39' E 018°58'0 0.0
2014-Oct-15 18:30N 69°39' E 018°58'0 0.0
2014-Oct-15 17:33N 69°39' E 018°58'0 0.0
2014-Oct-15 16:12N 69°39' E 018°58'0 0.0
2014-Oct-15 15:18N 69°39' E 018°58'0 0.0
2014-Oct-15 14:33N 69°39' E 018°58'0 0.0
2014-Oct-15 13:33N 69°39' E 018°58'0 0.0
2014-Oct-15 12:27N 69°39' E 018°58'0 0.0
2014-Oct-15 11:30N 69°39' E 018°58'0 0.0
2014-Oct-15 10:33N 69°39' E 018°58'0 0.0
2014-Oct-15 09:33N 69°39' E 018°58'0 0.0
2014-Oct-15 08:33N 69°39' E 018°58'0 0.0
2014-Oct-15 07:33N 69°39' E 018°58'0 0.0
2014-Oct-15 06:27N 69°39' E 018°58'0 0.0
2014-Oct-15 05:33N 69°39' E 018°58'0 0.0
2014-Oct-15 04:33N 69°39' E 018°58'0 0.0
2014-Oct-15 03:33N 69°39' E 018°58'0 0.0
2014-Oct-15 02:27N 69°39' E 018°58'0 0.0
2014-Oct-15 01:33N 69°39' E 018°58'0 0.0
2014-Oct-15 00:33N 69°39' E 018°58'0 0.0
2014-Oct-14 23:33N 69°39' E 018°58'0 0.0
2014-Oct-14 22:30N 69°39' E 018°58'0 0.0
2014-Oct-14 21:30N 69°39' E 018°58'0 0.0
2014-Oct-14 20:30N 69°39' E 018°58'0 0.0
2014-Oct-14 19:30N 69°39' E 018°58'0 0.0
2014-Oct-14 18:24N 69°39' E 018°58'  
Track history (hours):
 
Tides and Currents Weather Stations Pressure Air Temp Water Temp Dewpoint Dewpoint Depression Visibility Wind Speed Wind Dir Waves Ship Positions

Rescue Gideon

Last reported at 2014-Oct-23 14:23 UTC. Time now 2014-Oct-23 15:08 UTC.
Position N 69°39' E 018°58'.

Length 13 m; draft 1 m.

Type: SAR. MMSI: 257904900.

Date/timePositionNaut miles runAvg speedWind from/ knotsBaromVisibWave heightAir tempDewpointWater temp
2014-Oct-23 14:23N 69°39' E 018°58'0 0.0
2014-Oct-23 13:32N 69°39' E 018°58'0 0.0
2014-Oct-23 12:32N 69°39' E 018°58'0 0.0
2014-Oct-23 11:32N 69°39' E 018°58'0 0.0
2014-Oct-23 10:29N 69°39' E 018°58'0 0.0
2014-Oct-23 09:26N 69°39' E 018°58'0 0.0
2014-Oct-23 08:29N 69°39' E 018°58'0 0.0
2014-Oct-23 07:26N 69°39' E 018°58'0 0.0
2014-Oct-23 06:26N 69°39' E 018°58'0 0.0
2014-Oct-23 05:26N 69°39' E 018°58'0 0.0
2014-Oct-23 04:32N 69°39' E 018°58'0 0.0
2014-Oct-23 03:32N 69°39' E 018°58'0 0.0
2014-Oct-23 02:32N 69°39' E 018°58'0 0.0
2014-Oct-23 01:11N 69°39' E 018°58'0 0.0
2014-Oct-23 00:32N 69°39' E 018°58'0 0.0
2014-Oct-22 23:23N 69°39' E 018°58'0 0.0
2014-Oct-22 22:32N 69°39' E 018°58'0 0.0
2014-Oct-22 21:29N 69°39' E 018°58'0 0.0
2014-Oct-22 20:23N 69°39' E 018°58'1 1.0
2014-Oct-22 19:05N 69°40' E 019°00'1 2.1
2014-Oct-22 18:27N 69°39' E 018°58'0 0.0
2014-Oct-22 17:33N 69°39' E 018°58'0 0.0
2014-Oct-22 16:33N 69°39' E 018°58'0 0.0
2014-Oct-22 15:33N 69°39' E 018°58'0 0.0
2014-Oct-22 14:30N 69°39' E 018°58'0 0.0
2014-Oct-22 13:33N 69°39' E 018°58'0 0.0
2014-Oct-22 12:27N 69°39' E 018°58'0 0.0
2014-Oct-22 11:18N 69°39' E 018°58'0 0.0
2014-Oct-22 10:33N 69°39' E 018°58'0 0.0
2014-Oct-22 09:30N 69°39' E 018°58'0 0.0
2014-Oct-22 08:30N 69°39' E 018°58'0 0.0
2014-Oct-22 07:33N 69°39' E 018°58'0 0.0
2014-Oct-22 06:33N 69°39' E 018°58'0 0.0
2014-Oct-22 05:30N 69°39' E 018°58'0 0.0
2014-Oct-22 04:24N 69°39' E 018°58'0 0.0
2014-Oct-22 03:27N 69°39' E 018°58'0 0.0
2014-Oct-22 02:33N 69°39' E 018°58'0 0.0
2014-Oct-22 01:30N 69°39' E 018°58'0 0.0
2014-Oct-22 00:33N 69°39' E 018°58'0 0.0
2014-Oct-21 23:33N 69°39' E 018°58'0 0.0
2014-Oct-21 22:33N 69°39' E 018°58'0 0.0
2014-Oct-21 21:33N 69°39' E 018°58'0 0.0
2014-Oct-21 20:30N 69°39' E 018°58'3 3.2
2014-Oct-21 19:33N 69°42' E 019°02'4 4.3
2014-Oct-21 18:33N 69°39' E 018°53'2 1.7
2014-Oct-21 17:32N 69°39' E 018°58'0 0.0
2014-Oct-21 16:32N 69°39' E 018°58'0 0.0
2014-Oct-21 15:32N 69°39' E 018°58'0 0.0
2014-Oct-21 14:29N 69°39' E 018°58'0 0.0
2014-Oct-21 13:32N 69°39' E 018°58'0 0.0
2014-Oct-21 12:32N 69°39' E 018°58'0 0.0
2014-Oct-21 11:29N 69°39' E 018°58'0 0.0
2014-Oct-21 10:26N 69°39' E 018°58'0 0.0
2014-Oct-21 09:29N 69°39' E 018°58'0 0.0
2014-Oct-21 08:32N 69°39' E 018°58'0 0.0
2014-Oct-21 07:29N 69°39' E 018°58'0 0.0
2014-Oct-21 06:29N 69°39' E 018°58'0 0.0
2014-Oct-21 05:32N 69°39' E 018°58'0 0.0
2014-Oct-21 04:32N 69°39' E 018°58'0 0.0
2014-Oct-21 03:29N 69°39' E 018°58'0 0.0
2014-Oct-21 02:32N 69°39' E 018°58'0 0.0
2014-Oct-21 01:32N 69°39' E 018°58'0 0.0
2014-Oct-21 00:32N 69°39' E 018°58'0 0.0
2014-Oct-20 23:32N 69°39' E 018°58'0 0.0
2014-Oct-20 22:32N 69°39' E 018°58'0 0.0
2014-Oct-20 21:32N 69°39' E 018°58'0 0.0
2014-Oct-20 20:29N 69°39' E 018°58'0 0.0
2014-Oct-20 19:32N 69°39' E 018°58'0 0.0
2014-Oct-20 18:24N 69°39' E 018°58'0 0.0
2014-Oct-20 17:33N 69°39' E 018°58'0 0.0
2014-Oct-20 16:33N 69°39' E 018°58'0 0.0
2014-Oct-20 15:33N 69°39' E 018°58'0 0.0
2014-Oct-20 14:33N 69°39' E 018°58'0 0.0
2014-Oct-20 13:33N 69°39' E 018°58'0 0.0
2014-Oct-20 12:33N 69°39' E 018°58'0 0.0
2014-Oct-20 11:33N 69°39' E 018°58'0 0.0
2014-Oct-20 10:33N 69°39' E 018°58'0 0.0
2014-Oct-20 09:33N 69°39' E 018°58'0 0.0
2014-Oct-20 08:33N 69°39' E 018°58'0 0.0
2014-Oct-20 07:33N 69°39' E 018°58'0 0.0
2014-Oct-20 06:33N 69°39' E 018°58'0 0.0
2014-Oct-20 05:33N 69°39' E 018°58'0 0.0
2014-Oct-20 04:33N 69°39' E 018°58'0 0.0
2014-Oct-20 03:33N 69°39' E 018°58'0 0.0
2014-Oct-20 02:33N 69°39' E 018°58'0 0.0
2014-Oct-20 01:33N 69°39' E 018°58'0 0.0
2014-Oct-20 00:33N 69°39' E 018°58'0 0.0
2014-Oct-19 23:33N 69°39' E 018°58'0 0.0
2014-Oct-19 22:33N 69°39' E 018°58'0 0.0
2014-Oct-19 21:33N 69°39' E 018°58'0 0.0
2014-Oct-19 20:33N 69°39' E 018°58'0 0.0
2014-Oct-19 19:33N 69°39' E 018°58'0 0.0
2014-Oct-19 18:33N 69°39' E 018°58'0 0.0
2014-Oct-19 17:33N 69°39' E 018°58'0 0.0
2014-Oct-19 16:33N 69°39' E 018°58'0 0.0
2014-Oct-19 15:33N 69°39' E 018°58'0 0.0
2014-Oct-19 14:26N 69°39' E 018°58'0 0.0
2014-Oct-19 13:33N 69°39' E 018°58'0 0.0
2014-Oct-19 12:33N 69°39' E 018°58'0 0.0
2014-Oct-19 11:33N 69°39' E 018°58'0 0.3
2014-Oct-19 10:33N 69°39' E 018°59'0 0.3
2014-Oct-19 09:33N 69°39' E 018°58'0 0.0
2014-Oct-19 08:33N 69°39' E 018°58'0 0.0
2014-Oct-19 07:33N 69°39' E 018°58'0 0.0
2014-Oct-19 06:33N 69°39' E 018°58'0 0.0
2014-Oct-19 05:33N 69°39' E 018°58'0 0.0
2014-Oct-19 04:33N 69°39' E 018°58'0 0.0
2014-Oct-19 03:33N 69°39' E 018°58'0 0.0
2014-Oct-19 02:33N 69°39' E 018°58'1 0.7
2014-Oct-19 01:33N 69°40' E 018°59'1 0.6
2014-Oct-18 23:04N 69°41' E 019°01'2 4.3
2014-Oct-18 22:33N 69°39' E 018°58'0 0.0
2014-Oct-18 21:33N 69°39' E 018°58'0 0.0
2014-Oct-18 20:33N 69°39' E 018°58'0 0.0
2014-Oct-18 19:27N 69°39' E 018°58'0 0.0
2014-Oct-18 18:33N 69°39' E 018°58'0 0.0
2014-Oct-18 17:15N 69°39' E 018°58'0 0.0
2014-Oct-18 16:33N 69°39' E 018°58'0 0.0
2014-Oct-18 15:33N 69°39' E 018°58'0 0.0
2014-Oct-18 14:33N 69°39' E 018°58'0 0.0
2014-Oct-18 13:33N 69°39' E 018°58'0 0.0
2014-Oct-18 12:33N 69°39' E 018°58'0 0.0
2014-Oct-18 11:30N 69°39' E 018°58'0 0.0
2014-Oct-18 10:33N 69°39' E 018°58'0 0.0
2014-Oct-18 09:33N 69°39' E 018°58'0 0.0
2014-Oct-18 08:33N 69°39' E 018°58'0 0.0
2014-Oct-18 07:33N 69°39' E 018°58'0 0.0
2014-Oct-18 06:30N 69°39' E 018°58'0 0.0
2014-Oct-18 05:30N 69°39' E 018°58'0 0.0
2014-Oct-18 04:27N 69°39' E 018°58'0 0.0
2014-Oct-18 03:33N 69°39' E 018°58'0 0.0
2014-Oct-18 02:33N 69°39' E 018°58'0 0.0
2014-Oct-18 01:27N 69°39' E 018°58'0 0.0
2014-Oct-18 00:33N 69°39' E 018°58'0 0.0
2014-Oct-17 23:33N 69°39' E 018°58'0 0.0
2014-Oct-17 22:27N 69°39' E 018°58'0 0.0
2014-Oct-17 21:33N 69°39' E 018°58'0 0.0
2014-Oct-17 20:33N 69°39' E 018°58'0 0.0
2014-Oct-17 19:33N 69°39' E 018°58'0 0.0
2014-Oct-17 18:33N 69°39' E 018°58'0 0.0
2014-Oct-17 17:33N 69°39' E 018°58'0 0.0
2014-Oct-17 16:30N 69°39' E 018°58'0 0.0
2014-Oct-17 15:33N 69°39' E 018°58'0 0.0
2014-Oct-17 14:33N 69°39' E 018°58'0 0.0
2014-Oct-17 13:30N 69°39' E 018°58'0 0.0
2014-Oct-17 12:30N 69°39' E 018°58'0 0.0
2014-Oct-17 11:33N 69°39' E 018°58'0 0.0
2014-Oct-17 10:33N 69°39' E 018°58'0 0.0
2014-Oct-17 09:33N 69°39' E 018°58'0 0.0
2014-Oct-17 08:33N 69°39' E 018°58'0 0.0
2014-Oct-17 07:33N 69°39' E 018°58'0 0.0
2014-Oct-17 06:33N 69°39' E 018°58'0 0.0
2014-Oct-17 05:33N 69°39' E 018°58'0 0.0
2014-Oct-17 04:33N 69°39' E 018°58'0 0.0
2014-Oct-17 03:33N 69°39' E 018°58'0 0.0
2014-Oct-17 02:33N 69°39' E 018°58'0 0.0
2014-Oct-17 01:33N 69°39' E 018°58'0 0.0
2014-Oct-17 00:33N 69°39' E 018°58'0 0.0
2014-Oct-16 23:33N 69°39' E 018°58'0 0.0
2014-Oct-16 22:30N 69°39' E 018°58'0 0.0
2014-Oct-16 21:27N 69°39' E 018°58'0 0.0
2014-Oct-16 20:33N 69°39' E 018°58'0 0.0
2014-Oct-16 19:33N 69°39' E 018°58'0 0.0
2014-Oct-16 18:33N 69°39' E 018°58'0 0.0
2014-Oct-16 17:24N 69°39' E 018°58'0 0.0
2014-Oct-16 16:33N 69°39' E 018°58'0 0.0
2014-Oct-16 15:33N 69°39' E 018°58'0 0.0
2014-Oct-16 14:33N 69°39' E 018°58'0 0.0
2014-Oct-16 13:33N 69°39' E 018°58'0 0.0
2014-Oct-16 12:30N 69°39' E 018°58'0 0.0
2014-Oct-16 11:33N 69°39' E 018°58'0 0.0
2014-Oct-16 10:27N 69°39' E 018°58'0 0.0
2014-Oct-16 09:30N 69°39' E 018°58'0 0.0
2014-Oct-16 08:33N 69°39' E 018°58'0 0.0
2014-Oct-16 07:27N 69°39' E 018°58'0 0.0
2014-Oct-16 06:33N 69°39' E 018°58'0 0.0
2014-Oct-16 05:27N 69°39' E 018°58'0 0.0
2014-Oct-16 04:33N 69°39' E 018°58'0 0.0
2014-Oct-16 03:33N 69°39' E 018°58'0 0.0
2014-Oct-16 02:30N 69°39' E 018°58'0 0.0
2014-Oct-16 01:30N 69°39' E 018°58'0 0.0
2014-Oct-16 00:33N 69°39' E 018°58'0 0.0
2014-Oct-15 23:33N 69°39' E 018°58'0 0.0
2014-Oct-15 22:21N 69°39' E 018°58'0 0.0
2014-Oct-15 21:33N 69°39' E 018°58'0 0.0
2014-Oct-15 20:27N 69°39' E 018°58'0 0.0
2014-Oct-15 19:33N 69°39' E 018°58'0 0.0
2014-Oct-15 18:30N 69°39' E 018°58'0 0.0
2014-Oct-15 17:33N 69°39' E 018°58'0 0.0
2014-Oct-15 16:12N 69°39' E 018°58'0 0.0
2014-Oct-15 15:18N 69°39' E 018°58'0 0.0
2014-Oct-15 14:33N 69°39' E 018°58'0 0.0
2014-Oct-15 13:33N 69°39' E 018°58'0 0.0
2014-Oct-15 12:27N 69°39' E 018°58'0 0.0
2014-Oct-15 11:30N 69°39' E 018°58'0 0.0
2014-Oct-15 10:33N 69°39' E 018°58'0 0.0
2014-Oct-15 09:33N 69°39' E 018°58'0 0.0
2014-Oct-15 08:33N 69°39' E 018°58'0 0.0
2014-Oct-15 07:33N 69°39' E 018°58'0 0.0
2014-Oct-15 06:27N 69°39' E 018°58'0 0.0
2014-Oct-15 05:33N 69°39' E 018°58'0 0.0
2014-Oct-15 04:33N 69°39' E 018°58'0 0.0
2014-Oct-15 03:33N 69°39' E 018°58'0 0.0
2014-Oct-15 02:27N 69°39' E 018°58'0 0.0
2014-Oct-15 01:33N 69°39' E 018°58'0 0.0
2014-Oct-15 00:33N 69°39' E 018°58'0 0.0
2014-Oct-14 23:33N 69°39' E 018°58'0 0.0
2014-Oct-14 22:30N 69°39' E 018°58'0 0.0
2014-Oct-14 21:30N 69°39' E 018°58'0 0.0
2014-Oct-14 20:30N 69°39' E 018°58'0 0.0
2014-Oct-14 19:30N 69°39' E 018°58'0 0.0
2014-Oct-14 18:24N 69°39' E 018°58'  

Dump ship's entire track history